createdAt,value
2018-03-20T00:00:08.166Z,38.70
2018-03-20T00:02:35.687Z,38.53
2018-03-20T00:05:03.199Z,36.78
2018-03-20T00:07:30.726Z,41.35
2018-03-20T00:09:58.235Z,39.60
2018-03-20T00:12:25.759Z,37.33
2018-03-20T00:14:53.270Z,38.35
2018-03-20T00:17:20.807Z,34.42
2018-03-20T00:19:49.276Z,41.60
2018-03-20T00:22:16.808Z,44.50
2018-03-20T00:24:44.322Z,42.58
2018-03-20T00:27:12.620Z,41.97
2018-03-20T00:29:40.132Z,36.45
2018-03-20T00:32:07.658Z,33.70
2018-03-20T00:34:35.163Z,42.97
2018-03-20T00:37:02.685Z,39.17
2018-03-20T00:39:30.190Z,44.60
2018-03-20T00:41:58.490Z,47.92
2018-03-20T00:44:26.012Z,40.65
2018-03-20T00:46:53.542Z,45.00
2018-03-20T00:49:21.067Z,42.17
2018-03-20T00:51:48.589Z,40.90
2018-03-20T00:54:16.090Z,41.72
2018-03-20T00:56:43.615Z,40.85
2018-03-20T00:59:11.915Z,36.10
2018-03-20T01:01:40.218Z,35.38
2018-03-20T01:04:07.714Z,38.28
2018-03-20T01:06:35.214Z,40.60
2018-03-20T01:09:03.505Z,52.33
2018-03-20T01:11:31.014Z,42.08
2018-03-20T01:13:58.536Z,33.30
2018-03-20T01:16:26.046Z,40.12
2018-03-20T01:18:53.570Z,43.83
2018-03-20T01:21:21.086Z,36.15
2018-03-20T01:23:49.379Z,41.25
2018-03-20T01:26:16.885Z,46.10
2018-03-20T01:28:44.433Z,38.78
2018-03-20T01:31:11.942Z,48.92
2018-03-20T01:33:40.230Z,44.15
2018-03-20T01:36:07.751Z,41.80
2018-03-20T01:38:35.283Z,42.60
2018-03-20T01:41:02.799Z,56.22
2018-03-20T01:43:31.090Z,40.30
2018-03-20T01:45:59.359Z,41.78
2018-03-20T01:48:27.644Z,40.83
2018-03-20T01:50:55.914Z,39.85
2018-03-20T01:53:24.217Z,41.47
2018-03-20T01:55:51.721Z,39.83
2018-03-20T01:58:19.250Z,37.35
2018-03-20T02:00:46.762Z,43.47
2018-03-20T02:03:15.053Z,44.92
2018-03-20T02:05:43.328Z,51.67
2018-03-20T02:08:11.620Z,47.70
2018-03-20T02:10:39.141Z,35.90
2018-03-20T02:13:06.665Z,35.15
2018-03-20T02:15:34.186Z,46.00
2018-03-20T02:18:02.473Z,47.33
2018-03-20T02:20:29.986Z,32.88
2018-03-20T02:22:57.516Z,45.72
2018-03-20T02:25:25.030Z,36.10
2018-03-20T02:27:53.327Z,36.63
2018-03-20T02:30:20.843Z,46.65
2018-03-20T02:32:48.383Z,39.72
2018-03-20T02:35:15.901Z,37.80
2018-03-20T02:37:43.425Z,44.00
2018-03-20T02:40:10.930Z,39.83
2018-03-20T02:42:38.479Z,45.20
2018-03-20T02:45:06.788Z,33.13
2018-03-20T02:47:34.310Z,36.95
2018-03-20T02:50:02.603Z,33.05
2018-03-20T02:52:30.879Z,38.47
2018-03-20T02:54:58.407Z,39.92
2018-03-20T02:57:25.937Z,36.53
2018-03-20T02:59:53.468Z,40.83
2018-03-20T03:02:20.983Z,41.33
2018-03-20T03:04:48.519Z,35.90
2018-03-20T03:07:16.034Z,38.47
2018-03-20T03:09:44.322Z,44.15
2018-03-20T03:12:11.839Z,41.47
2018-03-20T03:14:39.370Z,45.58
2018-03-20T03:17:06.887Z,45.83
2018-03-20T03:19:35.199Z,40.28
2018-03-20T03:22:02.722Z,38.47
2018-03-20T03:24:31.016Z,44.67
2018-03-20T03:26:59.291Z,43.85
2018-03-20T03:29:26.818Z,38.33
2018-03-20T03:31:54.333Z,42.97
2018-03-20T03:34:21.861Z,33.17
2018-03-20T03:36:50.143Z,39.20
2018-03-20T03:39:17.675Z,38.67
2018-03-20T03:41:45.186Z,28.40
2018-03-20T03:44:12.723Z,39.53
2018-03-20T03:46:40.231Z,61.50
2018-03-20T03:49:07.787Z,34.33
2018-03-20T03:51:35.298Z,35.90
2018-03-20T03:54:03.591Z,39.17
2018-03-20T03:56:31.100Z,40.50
2018-03-20T03:58:58.630Z,31.98
2018-03-20T04:01:26.167Z,39.88
2018-03-20T04:03:54.450Z,33.03
2018-03-20T04:06:21.959Z,40.92
2018-03-20T04:08:49.482Z,33.05
2018-03-20T04:11:16.987Z,35.55
2018-03-20T04:13:44.522Z,33.97
2018-03-20T04:16:12.027Z,40.70
2018-03-20T04:18:40.327Z,34.78
2018-03-20T04:21:07.839Z,38.13
2018-03-20T04:23:35.353Z,43.97
2018-03-20T04:26:02.878Z,43.35
2018-03-20T04:28:31.156Z,45.05
2018-03-20T04:30:58.682Z,41.37
2018-03-20T04:33:26.186Z,37.25
2018-03-20T04:35:54.493Z,28.12
2018-03-20T04:38:21.998Z,35.25
2018-03-20T04:40:49.527Z,38.67
2018-03-20T04:43:17.043Z,40.50
2018-03-20T04:45:45.335Z,39.10
2018-03-20T04:48:12.855Z,44.92
2018-03-20T04:50:40.386Z,41.05
2018-03-20T04:53:07.899Z,34.65
2018-03-20T04:55:35.439Z,40.40
2018-03-20T04:58:02.947Z,35.40
2018-03-20T05:00:30.479Z,47.10
2018-03-20T05:02:58.762Z,33.35
2018-03-20T05:05:26.287Z,47.15
2018-03-20T05:07:53.794Z,38.15
2018-03-20T05:10:21.325Z,35.00
2018-03-20T05:12:49.608Z,39.97
2018-03-20T05:15:17.147Z,51.20
2018-03-20T05:17:46.450Z,50.60
2018-03-20T05:20:19.648Z,46.53
2018-03-20T05:22:59.863Z,36.60
2018-03-20T05:25:27.390Z,39.00
2018-03-20T05:27:54.919Z,50.00
2018-03-20T05:30:22.455Z,36.45
2018-03-20T05:32:49.977Z,52.80
2018-03-20T05:35:17.502Z,44.38
2018-03-20T05:37:45.017Z,54.85
2018-03-20T05:40:12.547Z,53.17
2018-03-20T05:42:40.823Z,41.03
2018-03-20T05:45:09.122Z,46.53
2018-03-20T05:50:53.449Z,45.65
2018-03-20T05:53:21.734Z,43.85
2018-03-20T05:55:49.298Z,44.47
2018-03-20T05:58:16.828Z,50.17
2018-03-20T06:00:45.138Z,46.15
2018-03-20T06:03:12.651Z,48.33
2018-03-20T06:05:40.190Z,50.60
2018-03-20T06:08:07.715Z,31.98
2018-03-20T06:10:35.283Z,46.63
2018-03-20T06:13:02.828Z,45.20
2018-03-20T06:15:31.155Z,42.85
2018-03-20T06:17:58.655Z,44.85
2018-03-20T06:20:26.983Z,49.45
2018-03-20T06:22:54.531Z,45.50
2018-03-20T06:25:22.084Z,42.05
2018-03-20T06:27:49.628Z,38.00
2018-03-20T06:30:17.167Z,42.03
2018-03-20T06:32:45.508Z,46.42
2018-03-20T06:35:13.052Z,48.97
2018-03-20T06:37:40.620Z,49.58
2018-03-20T06:40:08.179Z,45.33
2018-03-20T06:42:35.711Z,47.03
2018-03-20T06:45:03.236Z,45.15
2018-03-20T06:47:31.551Z,44.50
2018-03-20T06:49:59.091Z,38.80
2018-03-20T06:52:27.476Z,49.15
2018-03-20T06:54:55.027Z,38.17
2018-03-20T06:57:23.354Z,41.17
2018-03-20T06:59:50.908Z,39.08
2018-03-20T07:02:18.443Z,36.10
2018-03-20T07:04:46.754Z,52.90
2018-03-20T07:07:15.230Z,56.72
2018-03-20T07:09:42.752Z,39.70
2018-03-20T07:12:10.331Z,48.08
2018-03-20T07:14:37.863Z,49.17
2018-03-20T07:17:06.186Z,42.25
2018-03-20T07:19:33.728Z,33.78
2018-03-20T07:22:01.270Z,41.10
2018-03-20T07:24:29.555Z,38.30
2018-03-20T07:26:57.100Z,39.15
2018-03-20T07:29:25.408Z,43.92
2018-03-20T07:31:53.747Z,40.85
2018-03-20T07:34:21.280Z,45.53
2018-03-20T07:36:48.823Z,36.03
2018-03-20T07:39:16.360Z,45.75
2018-03-20T07:41:44.649Z,46.80
2018-03-20T07:44:12.204Z,45.25
2018-03-20T07:46:39.729Z,50.72
2018-03-20T07:49:07.279Z,53.00
2018-03-20T07:51:34.808Z,50.08
2018-03-20T07:54:02.339Z,42.38
2018-03-20T07:56:30.638Z,42.80
2018-03-20T07:58:58.179Z,42.70
2018-03-20T08:01:26.463Z,41.05
2018-03-20T08:03:54.009Z,53.80
2018-03-20T08:06:22.303Z,49.35
2018-03-20T08:08:49.852Z,46.90
2018-03-20T08:11:18.138Z,50.50
2018-03-20T08:13:45.695Z,43.67
2018-03-20T08:16:13.970Z,46.28
2018-03-20T08:18:41.490Z,41.33
2018-03-20T08:21:09.015Z,43.90
2018-03-20T08:23:36.568Z,35.85
2018-03-20T08:26:04.087Z,42.97
2018-03-20T08:28:31.623Z,44.10
2018-03-20T08:30:59.130Z,44.00
2018-03-20T08:33:26.676Z,47.42
2018-03-20T08:35:54.195Z,48.45
2018-03-20T08:38:22.494Z,44.85
2018-03-20T08:40:50.002Z,40.92
2018-03-20T08:43:17.531Z,46.17
2018-03-20T08:45:45.038Z,52.50
2018-03-20T08:48:13.335Z,51.40
2018-03-20T08:50:40.856Z,47.70
2018-03-20T08:53:08.395Z,43.58
2018-03-20T08:55:35.912Z,41.75
2018-03-20T08:58:03.447Z,43.65
2018-03-20T09:00:30.976Z,38.35
2018-03-20T09:02:58.520Z,39.42
2018-03-20T09:05:26.037Z,47.47
2018-03-20T09:07:54.318Z,40.78
2018-03-20T09:10:22.619Z,31.33
2018-03-20T09:12:50.127Z,43.42
2018-03-20T09:15:17.660Z,36.10
2018-03-20T09:17:45.166Z,44.15
2018-03-20T09:20:12.727Z,50.08
2018-03-20T09:22:40.239Z,43.45
2018-03-20T09:25:07.766Z,42.92
2018-03-20T09:27:35.298Z,49.30
2018-03-20T09:30:02.829Z,45.47
2018-03-20T09:32:31.114Z,42.00
2018-03-20T09:34:59.407Z,73.28
2018-03-20T09:37:26.915Z,42.90
2018-03-20T09:39:54.446Z,38.85
2018-03-20T09:42:21.966Z,39.53
2018-03-20T09:44:50.271Z,42.33
2018-03-20T09:47:17.782Z,44.03
2018-03-20T09:49:45.331Z,34.72
2018-03-20T09:52:12.848Z,38.22
2018-03-20T09:54:40.404Z,40.38
2018-03-20T09:57:07.915Z,45.47
2018-03-20T09:59:35.457Z,34.97
2018-03-20T10:02:03.006Z,33.20
2018-03-20T10:04:30.555Z,32.53
2018-03-20T10:06:58.055Z,40.30
2018-03-20T10:09:25.619Z,38.08
2018-03-20T10:11:53.102Z,41.42
2018-03-20T10:14:21.394Z,38.28
2018-03-20T10:16:48.914Z,34.05
2018-03-20T10:19:16.438Z,33.25
2018-03-20T10:21:43.941Z,33.63
2018-03-20T10:24:11.462Z,37.33
2018-03-20T10:26:38.974Z,23.52
2018-03-20T10:29:07.270Z,30.85
2018-03-20T10:31:34.798Z,26.42
2018-03-20T10:34:02.319Z,26.17
2018-03-20T10:36:29.833Z,34.63
2018-03-20T10:38:57.366Z,31.85
2018-03-20T10:41:25.235Z,28.25
2018-03-20T10:43:52.790Z,28.30
2018-03-20T10:46:20.284Z,33.50
2018-03-20T10:48:48.555Z,26.25
2018-03-20T10:51:16.088Z,24.02
2018-03-20T10:53:43.591Z,21.90
2018-03-20T10:56:11.118Z,35.88
2018-03-20T10:58:38.638Z,22.77
2018-03-20T11:01:06.158Z,22.62
2018-03-20T11:03:33.666Z,24.55
2018-03-20T11:06:01.195Z,27.02
2018-03-20T11:08:28.704Z,26.87
2018-03-20T11:10:56.232Z,22.67
2018-03-20T11:13:23.750Z,21.55
2018-03-20T11:15:51.283Z,16.92
2018-03-20T11:18:18.785Z,22.00
2018-03-20T11:20:46.310Z,18.90
2018-03-20T11:23:13.820Z,22.85
2018-03-20T11:25:41.351Z,29.60
2018-03-20T11:28:09.627Z,24.73
2018-03-20T11:30:37.154Z,19.33
2018-03-20T11:33:04.658Z,17.85
2018-03-20T11:35:32.938Z,22.20
2018-03-20T11:38:01.215Z,21.27
2018-03-20T11:40:28.729Z,17.20
2018-03-20T11:42:56.235Z,21.30
2018-03-20T11:45:24.514Z,17.95
2018-03-20T11:47:52.027Z,20.83
2018-03-20T11:50:19.546Z,19.52
2018-03-20T11:52:47.044Z,18.95
2018-03-20T11:55:14.562Z,15.35
2018-03-20T11:57:42.074Z,24.12
2018-03-20T12:00:09.600Z,17.58
2018-03-20T12:02:37.102Z,17.70
2018-03-20T12:05:04.627Z,28.90
2018-03-20T12:07:32.123Z,18.35
2018-03-20T12:09:59.643Z,23.30
2018-03-20T12:12:27.155Z,25.20
2018-03-20T12:14:55.444Z,19.17
2018-03-20T12:17:22.951Z,21.02
2018-03-20T12:19:50.512Z,20.10
2018-03-20T12:22:18.012Z,16.60
2018-03-20T12:24:46.278Z,18.30
2018-03-20T12:27:14.570Z,23.40
2018-03-20T12:29:42.836Z,19.10
2018-03-20T12:32:10.353Z,26.85
2018-03-20T12:34:37.859Z,15.60
2018-03-20T12:37:05.383Z,16.75
2018-03-20T12:39:32.890Z,17.23
2018-03-20T12:42:01.192Z,29.73
2018-03-20T12:44:28.694Z,24.37
2018-03-20T12:46:56.214Z,15.75
2018-03-20T12:49:23.719Z,15.07
2018-03-20T12:51:51.242Z,14.15
2018-03-20T12:54:18.743Z,14.23
2018-03-20T12:56:46.258Z,23.40
2018-03-20T12:59:13.765Z,17.85
2018-03-20T13:01:41.283Z,27.08
2018-03-20T13:04:08.786Z,16.73
2018-03-20T13:06:36.310Z,17.42
2018-03-20T13:09:03.817Z,22.62
2018-03-20T13:11:32.101Z,20.40
2018-03-20T13:14:00.363Z,21.27
2018-03-20T13:16:28.659Z,22.33
2018-03-20T13:18:56.938Z,23.67
2018-03-20T13:21:25.226Z,26.15
2018-03-20T13:23:52.740Z,19.70
2018-03-20T13:26:20.276Z,23.42
2018-03-20T13:28:47.798Z,22.40
2018-03-20T13:31:15.322Z,24.90
2018-03-20T13:33:42.826Z,27.42
2018-03-20T13:36:10.351Z,23.40
2018-03-20T13:38:37.864Z,28.20
2018-03-20T13:41:05.386Z,25.27
2018-03-20T13:43:33.662Z,22.62
2018-03-20T13:46:01.960Z,21.62
2018-03-20T13:48:29.466Z,25.58
2018-03-20T13:50:58.679Z,23.90
2018-03-20T13:53:28.103Z,22.67
2018-03-20T13:55:56.412Z,28.30
2018-03-20T13:58:23.918Z,25.10
2018-03-20T14:00:51.430Z,29.58
2018-03-20T14:03:18.954Z,21.77
2018-03-20T14:05:46.458Z,26.92
2018-03-20T14:08:13.981Z,29.92
2018-03-20T14:10:42.260Z,26.60
2018-03-20T14:13:09.806Z,22.87
2018-03-20T14:15:38.097Z,24.85
2018-03-20T14:18:07.242Z,23.92
2018-03-20T14:20:35.176Z,30.90
2018-03-20T14:23:02.683Z,23.75
2018-03-20T14:25:30.212Z,29.45
2018-03-20T14:27:57.735Z,26.98
2018-03-20T14:30:25.242Z,19.75
2018-03-20T14:32:53.713Z,28.70
2018-03-20T14:35:21.221Z,29.17
2018-03-20T14:37:48.750Z,20.42
2018-03-20T14:40:16.262Z,20.80
2018-03-20T14:42:44.563Z,30.27
2018-03-20T14:45:12.074Z,24.87
2018-03-20T14:47:39.586Z,22.37
2018-03-20T14:50:07.099Z,24.77
2018-03-20T14:52:34.621Z,26.27
2018-03-20T14:55:02.124Z,25.58
2018-03-20T14:57:29.656Z,25.85
2018-03-20T14:59:57.208Z,24.55
2018-03-20T15:02:24.766Z,24.65
2018-03-20T15:04:52.275Z,23.55
2018-03-20T15:07:19.804Z,29.15
2018-03-20T15:09:47.357Z,26.55
2018-03-20T15:12:14.882Z,25.12
2018-03-20T15:14:42.407Z,30.98
2018-03-20T15:17:09.939Z,23.73
2018-03-20T15:19:37.576Z,28.65
2018-03-20T15:22:05.116Z,43.83
2018-03-20T15:24:32.630Z,32.47
2018-03-20T15:27:00.226Z,35.13
2018-03-20T15:29:28.559Z,28.27
2018-03-20T15:31:56.071Z,30.15
2018-03-20T15:34:23.611Z,39.85
2018-03-20T15:36:51.128Z,31.85
2018-03-20T15:39:19.188Z,24.02
2018-03-20T15:41:47.477Z,26.55
2018-03-20T15:44:15.018Z,29.48
2018-03-20T15:46:42.601Z,31.25
2018-03-20T15:49:12.090Z,27.65
2018-03-20T15:51:40.640Z,31.08
2018-03-20T15:54:08.293Z,30.33
2018-03-20T15:56:35.955Z,29.85
2018-03-20T15:59:03.474Z,28.42
2018-03-20T16:01:31.840Z,36.80
2018-03-20T16:03:59.398Z,42.70
2018-03-20T16:06:26.912Z,37.88
2018-03-20T16:08:56.534Z,34.47
2018-03-20T16:11:24.177Z,39.08
2018-03-20T16:13:51.994Z,46.35
2018-03-20T16:16:19.519Z,42.05
2018-03-20T16:18:47.051Z,42.47
2018-03-20T16:21:14.569Z,35.58
2018-03-20T16:23:42.103Z,37.88
2018-03-20T16:26:09.623Z,38.97
2018-03-20T16:28:37.159Z,45.28
2018-03-20T16:31:04.679Z,48.78
2018-03-20T16:33:32.218Z,35.35
2018-03-20T16:35:59.730Z,44.38
2018-03-20T16:38:27.264Z,44.30
2018-03-20T16:40:54.771Z,35.10
2018-03-20T16:43:23.062Z,37.65
2018-03-20T16:45:50.619Z,41.37
2018-03-20T16:48:18.111Z,37.03
2018-03-20T16:50:46.390Z,27.73
2018-03-20T16:53:13.924Z,28.62
2018-03-20T16:55:41.442Z,35.55
2018-03-20T16:58:08.981Z,38.25
2018-03-20T17:00:36.499Z,40.60
2018-03-20T17:03:04.031Z,37.35
2018-03-20T17:05:31.545Z,33.08
2018-03-20T17:07:59.070Z,31.75
2018-03-20T17:10:27.359Z,35.20
2018-03-20T17:12:55.636Z,46.45
2018-03-20T17:15:23.163Z,32.72
2018-03-20T17:17:50.680Z,40.20
2018-03-20T17:20:18.238Z,32.45
2018-03-20T17:22:45.799Z,47.42
2018-03-20T17:25:13.302Z,41.05
2018-03-20T17:27:40.815Z,36.17
2018-03-20T17:30:08.351Z,43.28
2018-03-20T17:32:35.874Z,48.45
2018-03-20T17:35:04.167Z,39.05
2018-03-20T17:37:31.714Z,39.00
2018-03-20T17:40:00.023Z,39.92
2018-03-20T17:42:27.548Z,31.23
2018-03-20T17:44:55.850Z,38.75
2018-03-20T17:47:23.368Z,37.45
2018-03-20T17:49:51.676Z,43.60
2018-03-20T17:52:19.194Z,40.42
2018-03-20T17:54:46.727Z,47.05
2018-03-20T17:57:14.239Z,43.03
2018-03-20T17:59:42.531Z,51.15
2018-03-20T18:02:10.821Z,44.92
2018-03-20T18:04:38.359Z,54.08
2018-03-20T18:07:06.633Z,40.60
2018-03-20T18:09:34.926Z,54.83
2018-03-20T18:12:02.446Z,53.28
2018-03-20T18:14:29.976Z,62.72
2018-03-20T18:16:57.495Z,55.55
2018-03-20T18:19:25.798Z,57.35
2018-03-20T18:21:53.315Z,49.33
2018-03-20T18:24:20.861Z,79.35
2018-03-20T18:26:48.370Z,56.78
2018-03-20T18:29:15.898Z,54.03
2018-03-20T18:31:44.183Z,53.22
2018-03-20T18:34:12.479Z,59.40
2018-03-20T18:36:39.995Z,53.38
2018-03-20T18:39:07.523Z,53.42
2018-03-20T18:41:35.035Z,59.03
2018-03-20T18:44:03.332Z,51.20
2018-03-20T18:46:30.868Z,57.20
2018-03-20T18:48:59.155Z,58.78
2018-03-20T18:51:27.457Z,58.70
2018-03-20T18:53:54.966Z,64.82
2018-03-20T18:56:22.500Z,58.50
2018-03-20T18:58:50.007Z,61.47
2018-03-20T19:01:17.540Z,57.60
2018-03-20T19:03:45.050Z,66.68
2018-03-20T19:06:12.619Z,73.30
2018-03-20T19:08:40.898Z,82.55
2018-03-20T19:11:08.431Z,78.05
2018-03-20T19:13:36.710Z,71.15
2018-03-20T19:16:04.250Z,70.43
2018-03-20T19:18:31.754Z,73.20
2018-03-20T19:20:59.291Z,79.62
2018-03-20T19:23:27.571Z,77.03
2018-03-20T19:25:55.870Z,78.82
2018-03-20T19:28:23.387Z,70.07
2018-03-20T19:30:50.917Z,74.78
2018-03-20T19:33:18.439Z,69.75
2018-03-20T19:35:45.970Z,77.32
2018-03-20T19:38:13.483Z,76.93
2018-03-20T19:40:41.779Z,65.35
2018-03-20T19:43:09.293Z,71.43
2018-03-20T19:45:36.832Z,61.35
2018-03-20T19:48:05.128Z,69.93
2018-03-20T19:50:33.416Z,65.90
2018-03-20T19:53:00.939Z,69.50
2018-03-20T19:55:28.470Z,76.50
2018-03-20T19:57:55.975Z,70.87
2018-03-20T20:00:24.275Z,83.28
2018-03-20T20:02:51.790Z,65.47
2018-03-20T20:05:19.328Z,70.05
2018-03-20T20:07:46.838Z,59.88
2018-03-20T20:10:15.128Z,67.75
2018-03-20T20:12:42.630Z,71.70
2018-03-20T20:15:10.176Z,77.25
2018-03-20T20:17:37.693Z,73.55
2018-03-20T20:20:06.006Z,62.60
2018-03-20T20:22:33.514Z,61.03
2018-03-20T20:25:01.027Z,61.65
2018-03-20T20:27:28.550Z,62.67
2018-03-20T20:29:56.823Z,62.75
2018-03-20T20:32:25.115Z,73.07
2018-03-20T20:34:52.627Z,72.97
2018-03-20T20:37:20.154Z,58.67
2018-03-20T20:39:47.667Z,61.90
2018-03-20T20:42:15.215Z,64.93
2018-03-20T20:44:42.728Z,72.85
2018-03-20T20:47:10.258Z,58.92
2018-03-20T20:49:38.555Z,67.72
2018-03-20T20:52:06.090Z,68.28
2018-03-20T20:54:33.602Z,64.07
2018-03-20T20:57:01.131Z,68.62
2018-03-20T20:59:29.404Z,67.12
2018-03-20T21:01:57.698Z,63.45
2018-03-20T21:04:25.218Z,63.50
2018-03-20T21:06:52.742Z,61.55
2018-03-20T21:09:20.255Z,59.00
2018-03-20T21:11:48.563Z,62.25
2018-03-20T21:14:16.075Z,64.97
2018-03-20T21:16:43.603Z,54.65
2018-03-20T21:19:11.118Z,54.55
2018-03-20T21:21:39.410Z,56.33
2018-03-20T21:24:06.929Z,49.28
2018-03-20T21:26:34.458Z,61.15
2018-03-20T21:29:01.979Z,54.15
2018-03-20T21:31:30.739Z,58.58
2018-03-20T21:33:58.255Z,48.78
2018-03-20T21:36:25.791Z,53.90
2018-03-20T21:38:53.298Z,56.22
2018-03-20T21:41:21.830Z,50.35
2018-03-20T21:43:49.355Z,57.15
2018-03-20T21:46:16.879Z,52.67
2018-03-20T21:48:44.388Z,57.40
2018-03-20T21:51:11.906Z,48.28
2018-03-20T21:53:39.438Z,63.70
2018-03-20T21:56:07.422Z,52.62
2018-03-20T21:58:34.959Z,49.75
2018-03-20T22:01:03.243Z,52.53
2018-03-20T22:03:31.530Z,52.15
2018-03-20T22:05:59.080Z,50.33
2018-03-20T22:08:27.378Z,49.85
2018-03-20T22:10:54.887Z,40.80
2018-03-20T22:13:22.416Z,41.67
2018-03-20T22:15:49.930Z,45.20
2018-03-20T22:18:18.228Z,50.40
2018-03-20T22:20:45.738Z,44.10
2018-03-20T22:23:13.286Z,44.08
2018-03-20T22:25:40.803Z,47.28
2018-03-20T22:28:08.336Z,47.05
2018-03-20T22:30:35.847Z,47.50
2018-03-20T22:33:03.379Z,44.60
2018-03-20T22:35:30.891Z,44.58
2018-03-20T22:37:58.427Z,51.10
2018-03-20T22:40:25.936Z,39.17
2018-03-20T22:42:54.230Z,49.55
2018-03-20T22:45:21.736Z,48.70
2018-03-20T22:47:49.266Z,46.03
2018-03-20T22:50:16.776Z,41.85
2018-03-20T22:52:44.313Z,43.58
2018-03-20T22:55:11.826Z,40.63
2018-03-20T22:57:39.366Z,43.47
2018-03-20T23:00:06.885Z,58.40
2018-03-20T23:02:34.412Z,48.03
2018-03-20T23:05:01.927Z,44.55
2018-03-20T23:07:29.457Z,47.83
2018-03-20T23:09:56.971Z,40.97
2018-03-20T23:12:25.270Z,34.30
2018-03-20T23:14:52.795Z,42.55
2018-03-20T23:17:20.325Z,39.63
2018-03-20T23:19:47.831Z,37.90
2018-03-20T23:22:16.142Z,40.25
2018-03-20T23:24:43.650Z,39.53
2018-03-20T23:27:11.167Z,37.45
2018-03-20T23:29:38.715Z,35.95
2018-03-20T23:32:06.226Z,33.25
2018-03-20T23:34:33.747Z,35.17
2018-03-20T23:37:01.263Z,30.67
2018-03-20T23:39:28.791Z,45.97
2018-03-20T23:41:56.297Z,33.65
2018-03-20T23:44:23.832Z,34.33
2018-03-20T23:46:51.352Z,27.05
2018-03-20T23:49:18.884Z,36.75
2018-03-20T23:51:47.156Z,30.17
2018-03-20T23:54:15.462Z,35.65
2018-03-20T23:56:42.976Z,31.30
2018-03-20T23:59:10.503Z,33.75
